sensor_id;sensor_type;location;lat;lon;timestamp;P1;durP1;ratioP1;P2;durP2;ratioP2
46561;SDS011;32289;42.688;23.330;2023-01-19T00:01:04;11.07;;;1.67;;
46561;SDS011;32289;42.688;23.330;2023-01-19T00:04:45;9.23;;;2.70;;
46561;SDS011;32289;42.688;23.330;2023-01-19T00:08:26;7.03;;;1.58;;
46561;SDS011;32289;42.688;23.330;2023-01-19T00:12:06;8.43;;;1.45;;
46561;SDS011;32289;42.688;23.330;2023-01-19T00:15:47;9.50;;;1.65;;
46561;SDS011;32289;42.688;23.330;2023-01-19T00:19:28;12.35;;;1.95;;
46561;SDS011;32289;42.688;23.330;2023-01-19T00:23:08;15.38;;;1.98;;
46561;SDS011;32289;42.688;23.330;2023-01-19T00:26:49;10.38;;;1.00;;
46561;SDS011;32289;42.688;23.330;2023-01-19T00:30:30;3.95;;;1.15;;
46561;SDS011;32289;42.688;23.330;2023-01-19T00:34:10;17.95;;;1.85;;
46561;SDS011;32289;42.688;23.330;2023-01-19T00:37:51;7.18;;;1.73;;
46561;SDS011;32289;42.688;23.330;2023-01-19T00:41:32;10.68;;;1.95;;
46561;SDS011;32289;42.688;23.330;2023-01-19T00:45:31;16.58;;;2.20;;
46561;SDS011;32289;42.688;23.330;2023-01-19T00:49:12;7.03;;;1.65;;
46561;SDS011;32289;42.688;23.330;2023-01-19T00:52:54;8.57;;;2.05;;
46561;SDS011;32289;42.688;23.330;2023-01-19T00:56:36;14.35;;;1.30;;
46561;SDS011;32289;42.688;23.330;2023-01-19T01:00:17;10.85;;;1.23;;
46561;SDS011;32289;42.688;23.330;2023-01-19T01:03:58;10.02;;;1.17;;
46561;SDS011;32289;42.688;23.330;2023-01-19T01:07:39;14.15;;;1.67;;
46561;SDS011;32289;42.688;23.330;2023-01-19T01:11:21;13.43;;;1.75;;
46561;SDS011;32289;42.688;23.330;2023-01-19T01:15:03;9.68;;;1.42;;
46561;SDS011;32289;42.688;23.330;2023-01-19T01:18:44;15.88;;;1.65;;
46561;SDS011;32289;42.688;23.330;2023-01-19T01:22:25;6.22;;;0.70;;
46561;SDS011;32289;42.688;23.330;2023-01-19T01:26:06;16.77;;;1.75;;
46561;SDS011;32289;42.688;23.330;2023-01-19T01:29:47;10.85;;;1.27;;
46561;SDS011;32289;42.688;23.330;2023-01-19T01:33:27;8.15;;;1.35;;
46561;SDS011;32289;42.688;23.330;2023-01-19T01:37:08;6.05;;;1.38;;
46561;SDS011;32289;42.688;23.330;2023-01-19T01:40:49;12.32;;;1.75;;
46561;SDS011;32289;42.688;23.330;2023-01-19T01:48:29;11.32;;;1.63;;
46561;SDS011;32289;42.688;23.330;2023-01-19T01:52:10;9.05;;;1.20;;
46561;SDS011;32289;42.688;23.330;2023-01-19T01:55:53;12.63;;;1.40;;
46561;SDS011;32289;42.688;23.330;2023-01-19T01:59:34;8.73;;;1.27;;
46561;SDS011;32289;42.688;23.330;2023-01-19T02:03:18;9.32;;;1.23;;
46561;SDS011;32289;42.688;23.330;2023-01-19T02:07:00;4.68;;;0.93;;
46561;SDS011;32289;42.688;23.330;2023-01-19T02:10:59;7.30;;;1.30;;
46561;SDS011;32289;42.688;23.330;2023-01-19T02:15:00;12.73;;;1.70;;
46561;SDS011;32289;42.688;23.330;2023-01-19T02:18:41;6.82;;;1.02;;
46561;SDS011;32289;42.688;23.330;2023-01-19T02:22:32;14.98;;;1.33;;
46561;SDS011;32289;42.688;23.330;2023-01-19T02:30:01;6.38;;;1.00;;
46561;SDS011;32289;42.688;23.330;2023-01-19T02:33:42;8.55;;;1.13;;
46561;SDS011;32289;42.688;23.330;2023-01-19T02:37:23;12.73;;;1.58;;
46561;SDS011;32289;42.688;23.330;2023-01-19T02:41:06;8.90;;;1.27;;
46561;SDS011;32289;42.688;23.330;2023-01-19T02:44:50;6.60;;;0.70;;
46561;SDS011;32289;42.688;23.330;2023-01-19T02:48:33;7.93;;;1.15;;
46561;SDS011;32289;42.688;23.330;2023-01-19T02:52:15;9.40;;;1.52;;
46561;SDS011;32289;42.688;23.330;2023-01-19T02:56:03;7.70;;;1.02;;
46561;SDS011;32289;42.688;23.330;2023-01-19T03:03:57;4.40;;;1.13;;
46561;SDS011;32289;42.688;23.330;2023-01-19T03:12:03;8.80;;;1.08;;
46561;SDS011;32289;42.688;23.330;2023-01-19T03:15:51;6.35;;;0.93;;
46561;SDS011;32289;42.688;23.330;2023-01-19T03:19:40;7.07;;;0.80;;
46561;SDS011;32289;42.688;23.330;2023-01-19T03:23:23;11.40;;;1.33;;
46561;SDS011;32289;42.688;23.330;2023-01-19T03:27:31;7.78;;;0.90;;
46561;SDS011;32289;42.688;23.330;2023-01-19T03:31:20;7.90;;;0.88;;
46561;SDS011;32289;42.688;23.330;2023-01-19T03:35:04;7.30;;;1.20;;
46561;SDS011;32289;42.688;23.330;2023-01-19T03:38:50;3.35;;;0.75;;
46561;SDS011;32289;42.688;23.330;2023-01-19T03:42:32;10.43;;;1.17;;
46561;SDS011;32289;42.688;23.330;2023-01-19T03:46:15;11.88;;;1.40;;
46561;SDS011;32289;42.688;23.330;2023-01-19T03:49:57;8.63;;;1.38;;
46561;SDS011;32289;42.688;23.330;2023-01-19T03:53:43;11.85;;;1.08;;
46561;SDS011;32289;42.688;23.330;2023-01-19T03:57:25;14.93;;;1.48;;
46561;SDS011;32289;42.688;23.330;2023-01-19T04:01:06;9.27;;;1.30;;
46561;SDS011;32289;42.688;23.330;2023-01-19T04:04:46;9.05;;;2.47;;
46561;SDS011;32289;42.688;23.330;2023-01-19T04:08:27;9.85;;;1.25;;
46561;SDS011;32289;42.688;23.330;2023-01-19T04:12:08;15.27;;;1.70;;
46561;SDS011;32289;42.688;23.330;2023-01-19T04:15:48;12.80;;;2.15;;
46561;SDS011;32289;42.688;23.330;2023-01-19T04:19:30;14.00;;;1.63;;
46561;SDS011;32289;42.688;23.330;2023-01-19T04:23:10;14.82;;;2.20;;
46561;SDS011;32289;42.688;23.330;2023-01-19T04:26:51;8.35;;;2.15;;
46561;SDS011;32289;42.688;23.330;2023-01-19T04:30:32;22.17;;;2.13;;
46561;SDS011;32289;42.688;23.330;2023-01-19T04:34:13;19.60;;;2.15;;
46561;SDS011;32289;42.688;23.330;2023-01-19T04:37:54;11.60;;;1.83;;
46561;SDS011;32289;42.688;23.330;2023-01-19T04:41:34;18.23;;;1.90;;
46561;SDS011;32289;42.688;23.330;2023-01-19T04:45:15;15.63;;;2.40;;
46561;SDS011;32289;42.688;23.330;2023-01-19T04:48:56;13.57;;;2.53;;
46561;SDS011;32289;42.688;23.330;2023-01-19T04:52:37;18.92;;;2.00;;
46561;SDS011;32289;42.688;23.330;2023-01-19T04:56:17;13.93;;;1.98;;
46561;SDS011;32289;42.688;23.330;2023-01-19T04:59:58;14.30;;;2.17;;
46561;SDS011;32289;42.688;23.330;2023-01-19T05:03:39;12.70;;;2.05;;
46561;SDS011;32289;42.688;23.330;2023-01-19T05:07:19;18.30;;;3.08;;
46561;SDS011;32289;42.688;23.330;2023-01-19T05:11:00;21.23;;;2.40;;
46561;SDS011;32289;42.688;23.330;2023-01-19T05:14:41;13.50;;;1.60;;
46561;SDS011;32289;42.688;23.330;2023-01-19T05:18:22;11.50;;;2.42;;
46561;SDS011;32289;42.688;23.330;2023-01-19T05:22:03;9.75;;;2.30;;
46561;SDS011;32289;42.688;23.330;2023-01-19T05:25:44;7.65;;;1.58;;
46561;SDS011;32289;42.688;23.330;2023-01-19T05:29:25;13.27;;;1.85;;
46561;SDS011;32289;42.688;23.330;2023-01-19T05:33:06;10.40;;;2.78;;
46561;SDS011;32289;42.688;23.330;2023-01-19T05:36:46;14.10;;;2.70;;
46561;SDS011;32289;42.688;23.330;2023-01-19T05:40:27;14.18;;;2.10;;
46561;SDS011;32289;42.688;23.330;2023-01-19T05:44:09;11.02;;;2.42;;
46561;SDS011;32289;42.688;23.330;2023-01-19T05:47:50;11.70;;;2.03;;
46561;SDS011;32289;42.688;23.330;2023-01-19T05:51:31;15.27;;;2.58;;
46561;SDS011;32289;42.688;23.330;2023-01-19T05:55:16;6.15;;;1.98;;
46561;SDS011;32289;42.688;23.330;2023-01-19T05:58:58;15.45;;;3.08;;
46561;SDS011;32289;42.688;23.330;2023-01-19T06:02:42;13.20;;;2.17;;
46561;SDS011;32289;42.688;23.330;2023-01-19T06:06:22;8.05;;;1.80;;
46561;SDS011;32289;42.688;23.330;2023-01-19T06:10:03;16.65;;;2.58;;
46561;SDS011;32289;42.688;23.330;2023-01-19T06:13:44;13.07;;;2.22;;
46561;SDS011;32289;42.688;23.330;2023-01-19T06:17:26;10.10;;;1.98;;
46561;SDS011;32289;42.688;23.330;2023-01-19T06:21:07;16.67;;;1.60;;
46561;SDS011;32289;42.688;23.330;2023-01-19T06:24:49;7.63;;;1.90;;
46561;SDS011;32289;42.688;23.330;2023-01-19T06:28:30;14.30;;;2.72;;
46561;SDS011;32289;42.688;23.330;2023-01-19T06:32:11;16.10;;;2.05;;
46561;SDS011;32289;42.688;23.330;2023-01-19T06:35:51;9.98;;;1.75;;
46561;SDS011;32289;42.688;23.330;2023-01-19T06:39:32;17.02;;;2.35;;
46561;SDS011;32289;42.688;23.330;2023-01-19T06:43:13;14.30;;;1.77;;
46561;SDS011;32289;42.688;23.330;2023-01-19T06:46:54;26.38;;;2.85;;
46561;SDS011;32289;42.688;23.330;2023-01-19T06:50:34;17.00;;;2.03;;
46561;SDS011;32289;42.688;23.330;2023-01-19T06:54:15;21.50;;;3.20;;
46561;SDS011;32289;42.688;23.330;2023-01-19T06:57:56;10.45;;;2.45;;
46561;SDS011;32289;42.688;23.330;2023-01-19T07:01:38;18.83;;;2.90;;
46561;SDS011;32289;42.688;23.330;2023-01-19T07:05:18;16.35;;;1.80;;
46561;SDS011;32289;42.688;23.330;2023-01-19T07:09:01;14.43;;;2.03;;
46561;SDS011;32289;42.688;23.330;2023-01-19T07:12:46;13.27;;;2.30;;
46561;SDS011;32289;42.688;23.330;2023-01-19T07:16:26;13.95;;;1.55;;
46561;SDS011;32289;42.688;23.330;2023-01-19T07:20:08;11.68;;;2.70;;
46561;SDS011;32289;42.688;23.330;2023-01-19T07:23:52;10.13;;;2.92;;
46561;SDS011;32289;42.688;23.330;2023-01-19T07:27:32;10.07;;;2.28;;
46561;SDS011;32289;42.688;23.330;2023-01-19T07:31:13;17.15;;;3.10;;
46561;SDS011;32289;42.688;23.330;2023-01-19T07:34:55;16.75;;;3.83;;
46561;SDS011;32289;42.688;23.330;2023-01-19T07:38:35;20.45;;;2.00;;
46561;SDS011;32289;42.688;23.330;2023-01-19T07:42:16;22.55;;;2.80;;
46561;SDS011;32289;42.688;23.330;2023-01-19T07:45:57;9.85;;;2.97;;
46561;SDS011;32289;42.688;23.330;2023-01-19T07:49:39;12.18;;;2.20;;
46561;SDS011;32289;42.688;23.330;2023-01-19T07:53:19;14.73;;;2.53;;
46561;SDS011;32289;42.688;23.330;2023-01-19T07:57:01;16.90;;;2.72;;
46561;SDS011;32289;42.688;23.330;2023-01-19T08:00:42;20.52;;;2.55;;
46561;SDS011;32289;42.688;23.330;2023-01-19T08:04:22;14.38;;;3.47;;
46561;SDS011;32289;42.688;23.330;2023-01-19T08:08:03;6.55;;;2.17;;
46561;SDS011;32289;42.688;23.330;2023-01-19T08:11:44;9.73;;;2.05;;
46561;SDS011;32289;42.688;23.330;2023-01-19T08:15:25;13.27;;;2.72;;
46561;SDS011;32289;42.688;23.330;2023-01-19T08:19:06;13.95;;;2.85;;
46561;SDS011;32289;42.688;23.330;2023-01-19T08:22:46;18.60;;;1.92;;
46561;SDS011;32289;42.688;23.330;2023-01-19T08:26:29;17.02;;;3.85;;
46561;SDS011;32289;42.688;23.330;2023-01-19T08:30:13;15.55;;;2.35;;
46561;SDS011;32289;42.688;23.330;2023-01-19T08:33:54;21.67;;;3.47;;
46561;SDS011;32289;42.688;23.330;2023-01-19T08:37:36;11.50;;;2.25;;
46561;SDS011;32289;42.688;23.330;2023-01-19T08:41:16;10.02;;;2.45;;
46561;SDS011;32289;42.688;23.330;2023-01-19T08:44:57;24.08;;;4.18;;
46561;SDS011;32289;42.688;23.330;2023-01-19T08:48:37;15.25;;;2.72;;
46561;SDS011;32289;42.688;23.330;2023-01-19T08:52:18;19.05;;;3.28;;
46561;SDS011;32289;42.688;23.330;2023-01-19T08:55:59;24.10;;;2.67;;
46561;SDS011;32289;42.688;23.330;2023-01-19T08:59:41;14.93;;;3.22;;
46561;SDS011;32289;42.688;23.330;2023-01-19T09:03:21;12.68;;;2.38;;
46561;SDS011;32289;42.688;23.330;2023-01-19T09:07:02;15.07;;;2.55;;
46561;SDS011;32289;42.688;23.330;2023-01-19T09:10:47;16.95;;;2.28;;
46561;SDS011;32289;42.688;23.330;2023-01-19T09:14:30;12.63;;;2.72;;
46561;SDS011;32289;42.688;23.330;2023-01-19T09:18:14;16.15;;;2.47;;
46561;SDS011;32289;42.688;23.330;2023-01-19T09:21:57;13.18;;;2.17;;
46561;SDS011;32289;42.688;23.330;2023-01-19T09:25:39;11.95;;;2.03;;
46561;SDS011;32289;42.688;23.330;2023-01-19T09:29:23;14.90;;;2.00;;
46561;SDS011;32289;42.688;23.330;2023-01-19T09:33:06;8.85;;;1.98;;
46561;SDS011;32289;42.688;23.330;2023-01-19T09:36:50;20.30;;;2.47;;
46561;SDS011;32289;42.688;23.330;2023-01-19T09:40:31;9.60;;;2.17;;
46561;SDS011;32289;42.688;23.330;2023-01-19T09:44:17;10.25;;;1.70;;
46561;SDS011;32289;42.688;23.330;2023-01-19T09:48:14;11.88;;;2.33;;
46561;SDS011;32289;42.688;23.330;2023-01-19T09:52:00;14.82;;;2.88;;
46561;SDS011;32289;42.688;23.330;2023-01-19T09:55:41;21.83;;;2.97;;
46561;SDS011;32289;42.688;23.330;2023-01-19T10:03:12;14.20;;;3.63;;
46561;SDS011;32289;42.688;23.330;2023-01-19T10:07:03;12.85;;;1.67;;
46561;SDS011;32289;42.688;23.330;2023-01-19T10:10:51;8.48;;;1.58;;
46561;SDS011;32289;42.688;23.330;2023-01-19T10:14:39;10.52;;;2.03;;
46561;SDS011;32289;42.688;23.330;2023-01-19T10:18:42;9.02;;;2.15;;
46561;SDS011;32289;42.688;23.330;2023-01-19T10:22:27;13.52;;;3.00;;
46561;SDS011;32289;42.688;23.330;2023-01-19T10:26:21;15.10;;;2.25;;
46561;SDS011;32289;42.688;23.330;2023-01-19T10:30:05;8.10;;;2.00;;
46561;SDS011;32289;42.688;23.330;2023-01-19T10:33:50;12.82;;;1.65;;
46561;SDS011;32289;42.688;23.330;2023-01-19T10:37:33;7.43;;;1.95;;
46561;SDS011;32289;42.688;23.330;2023-01-19T10:41:18;10.80;;;2.10;;
46561;SDS011;32289;42.688;23.330;2023-01-19T10:49:00;13.23;;;1.67;;
46561;SDS011;32289;42.688;23.330;2023-01-19T10:52:41;15.52;;;1.90;;
46561;SDS011;32289;42.688;23.330;2023-01-19T10:56:26;9.32;;;1.27;;
46561;SDS011;32289;42.688;23.330;2023-01-19T11:00:30;16.55;;;2.28;;
46561;SDS011;32289;42.688;23.330;2023-01-19T11:04:18;8.93;;;2.70;;
46561;SDS011;32289;42.688;23.330;2023-01-19T11:08:04;10.25;;;2.28;;
46561;SDS011;32289;42.688;23.330;2023-01-19T11:12:02;12.35;;;2.10;;
46561;SDS011;32289;42.688;23.330;2023-01-19T11:15:45;10.02;;;1.88;;
46561;SDS011;32289;42.688;23.330;2023-01-19T11:19:32;8.98;;;2.13;;
46561;SDS011;32289;42.688;23.330;2023-01-19T11:26:54;8.52;;;2.45;;
46561;SDS011;32289;42.688;23.330;2023-01-19T11:30:52;10.32;;;1.98;;
46561;SDS011;32289;42.688;23.330;2023-01-19T11:34:35;8.05;;;1.90;;
46561;SDS011;32289;42.688;23.330;2023-01-19T11:38:18;8.15;;;1.55;;
46561;SDS011;32289;42.688;23.330;2023-01-19T11:42:03;11.80;;;1.48;;
46561;SDS011;32289;42.688;23.330;2023-01-19T11:45:45;17.05;;;2.42;;
46561;SDS011;32289;42.688;23.330;2023-01-19T11:49:28;5.07;;;0.88;;
46561;SDS011;32289;42.688;23.330;2023-01-19T11:57:08;11.73;;;1.65;;
46561;SDS011;32289;42.688;23.330;2023-01-19T12:00:56;16.10;;;1.73;;
46561;SDS011;32289;42.688;23.330;2023-01-19T12:04:43;3.05;;;0.98;;
46561;SDS011;32289;42.688;23.330;2023-01-19T12:08:36;11.27;;;1.67;;
46561;SDS011;32289;42.688;23.330;2023-01-19T12:12:26;8.27;;;1.35;;
46561;SDS011;32289;42.688;23.330;2023-01-19T12:16:12;8.55;;;1.75;;
46561;SDS011;32289;42.688;23.330;2023-01-19T12:27:42;7.57;;;1.73;;
46561;SDS011;32289;42.688;23.330;2023-01-19T12:31:25;6.45;;;1.17;;
46561;SDS011;32289;42.688;23.330;2023-01-19T12:35:07;7.15;;;1.48;;
46561;SDS011;32289;42.688;23.330;2023-01-19T12:39:25;3.25;;;1.00;;
46561;SDS011;32289;42.688;23.330;2023-01-19T12:43:12;9.60;;;1.00;;
46561;SDS011;32289;42.688;23.330;2023-01-19T12:51:00;11.75;;;1.52;;
46561;SDS011;32289;42.688;23.330;2023-01-19T12:54:42;4.40;;;1.27;;
46561;SDS011;32289;42.688;23.330;2023-01-19T12:58:29;4.22;;;0.80;;
46561;SDS011;32289;42.688;23.330;2023-01-19T13:06:00;6.38;;;1.65;;
46561;SDS011;32289;42.688;23.330;2023-01-19T13:09:41;3.95;;;1.00;;
46561;SDS011;32289;42.688;23.330;2023-01-19T13:13:26;3.20;;;1.00;;
46561;SDS011;32289;42.688;23.330;2023-01-19T13:21:12;5.10;;;1.30;;
46561;SDS011;32289;42.688;23.330;2023-01-19T13:25:12;6.28;;;1.50;;
46561;SDS011;32289;42.688;23.330;2023-01-19T13:29:05;6.07;;;1.55;;
46561;SDS011;32289;42.688;23.330;2023-01-19T13:33:08;6.30;;;0.90;;
46561;SDS011;32289;42.688;23.330;2023-01-19T13:36:58;7.55;;;1.58;;
46561;SDS011;32289;42.688;23.330;2023-01-19T13:40:39;3.78;;;0.95;;
46561;SDS011;32289;42.688;23.330;2023-01-19T13:44:27;5.47;;;1.63;;
46561;SDS011;32289;42.688;23.330;2023-01-19T13:48:13;7.47;;;1.02;;
46561;SDS011;32289;42.688;23.330;2023-01-19T13:52:04;2.85;;;0.70;;
46561;SDS011;32289;42.688;23.330;2023-01-19T13:55:45;3.80;;;0.70;;
46561;SDS011;32289;42.688;23.330;2023-01-19T13:59:27;5.05;;;1.13;;
46561;SDS011;32289;42.688;23.330;2023-01-19T14:06:48;3.15;;;0.60;;
46561;SDS011;32289;42.688;23.330;2023-01-19T14:10:33;7.72;;;1.30;;
46561;SDS011;32289;42.688;23.330;2023-01-19T14:14:25;4.68;;;1.38;;
46561;SDS011;32289;42.688;23.330;2023-01-19T14:18:26;5.70;;;1.15;;
46561;SDS011;32289;42.688;23.330;2023-01-19T14:22:10;3.90;;;1.02;;
46561;SDS011;32289;42.688;23.330;2023-01-19T14:25:51;7.72;;;1.10;;
46561;SDS011;32289;42.688;23.330;2023-01-19T14:29:35;3.17;;;1.05;;
46561;SDS011;32289;42.688;23.330;2023-01-19T14:33:32;4.60;;;1.13;;
46561;SDS011;32289;42.688;23.330;2023-01-19T14:41:10;3.80;;;0.90;;
46561;SDS011;32289;42.688;23.330;2023-01-19T14:44:52;6.00;;;1.00;;
46561;SDS011;32289;42.688;23.330;2023-01-19T14:48:34;6.13;;;1.15;;
46561;SDS011;32289;42.688;23.330;2023-01-19T14:52:19;3.97;;;0.85;;
46561;SDS011;32289;42.688;23.330;2023-01-19T14:56:07;2.40;;;0.85;;
46561;SDS011;32289;42.688;23.330;2023-01-19T14:59:48;8.80;;;1.20;;
46561;SDS011;32289;42.688;23.330;2023-01-19T15:03:29;3.50;;;0.68;;
46561;SDS011;32289;42.688;23.330;2023-01-19T15:07:13;9.68;;;2.90;;
46561;SDS011;32289;42.688;23.330;2023-01-19T15:11:01;6.45;;;1.27;;
46561;SDS011;32289;42.688;23.330;2023-01-19T15:14:49;4.55;;;1.17;;
46561;SDS011;32289;42.688;23.330;2023-01-19T15:18:30;2.45;;;0.73;;
46561;SDS011;32289;42.688;23.330;2023-01-19T15:22:11;5.40;;;0.90;;
46561;SDS011;32289;42.688;23.330;2023-01-19T15:25:52;6.32;;;1.20;;
46561;SDS011;32289;42.688;23.330;2023-01-19T15:29:39;11.50;;;1.70;;
46561;SDS011;32289;42.688;23.330;2023-01-19T15:33:21;6.85;;;1.13;;
46561;SDS011;32289;42.688;23.330;2023-01-19T15:37:04;4.20;;;1.95;;
46561;SDS011;32289;42.688;23.330;2023-01-19T15:40:45;10.02;;;1.30;;
46561;SDS011;32289;42.688;23.330;2023-01-19T15:44:26;8.23;;;0.93;;
46561;SDS011;32289;42.688;23.330;2023-01-19T15:48:08;3.40;;;1.00;;
46561;SDS011;32289;42.688;23.330;2023-01-19T15:51:50;3.55;;;1.23;;
46561;SDS011;32289;42.688;23.330;2023-01-19T15:55:31;13.05;;;1.20;;
46561;SDS011;32289;42.688;23.330;2023-01-19T15:59:11;3.40;;;0.98;;
46561;SDS011;32289;42.688;23.330;2023-01-19T16:02:52;4.13;;;1.60;;
46561;SDS011;32289;42.688;23.330;2023-01-19T16:06:33;1.70;;;0.80;;
46561;SDS011;32289;42.688;23.330;2023-01-19T16:10:14;4.30;;;1.88;;
46561;SDS011;32289;42.688;23.330;2023-01-19T16:13:56;4.45;;;1.10;;
46561;SDS011;32289;42.688;23.330;2023-01-19T16:17:37;6.93;;;1.25;;
46561;SDS011;32289;42.688;23.330;2023-01-19T16:21:18;4.65;;;1.20;;
46561;SDS011;32289;42.688;23.330;2023-01-19T16:24:59;2.70;;;0.77;;
46561;SDS011;32289;42.688;23.330;2023-01-19T16:28:39;3.38;;;0.98;;
46561;SDS011;32289;42.688;23.330;2023-01-19T16:32:20;6.68;;;0.63;;
46561;SDS011;32289;42.688;23.330;2023-01-19T16:36:15;8.10;;;1.60;;
46561;SDS011;32289;42.688;23.330;2023-01-19T16:40:00;2.13;;;0.93;;
46561;SDS011;32289;42.688;23.330;2023-01-19T16:43:42;2.42;;;0.70;;
46561;SDS011;32289;42.688;23.330;2023-01-19T16:47:22;2.75;;;1.25;;
46561;SDS011;32289;42.688;23.330;2023-01-19T16:51:04;4.93;;;2.00;;
46561;SDS011;32289;42.688;23.330;2023-01-19T16:54:45;6.65;;;2.97;;
46561;SDS011;32289;42.688;23.330;2023-01-19T16:58:26;8.32;;;3.28;;
46561;SDS011;32289;42.688;23.330;2023-01-19T17:02:07;3.63;;;1.35;;
46561;SDS011;32289;42.688;23.330;2023-01-19T17:05:50;2.80;;;1.00;;
46561;SDS011;32289;42.688;23.330;2023-01-19T17:09:30;3.25;;;1.25;;
46561;SDS011;32289;42.688;23.330;2023-01-19T17:13:11;8.45;;;2.40;;
46561;SDS011;32289;42.688;23.330;2023-01-19T17:16:52;4.60;;;1.80;;
46561;SDS011;32289;42.688;23.330;2023-01-19T17:20:33;3.38;;;1.75;;
46561;SDS011;32289;42.688;23.330;2023-01-19T17:24:14;6.13;;;2.47;;
46561;SDS011;32289;42.688;23.330;2023-01-19T17:27:55;4.53;;;1.75;;
46561;SDS011;32289;42.688;23.330;2023-01-19T17:31:40;3.00;;;1.27;;
46561;SDS011;32289;42.688;23.330;2023-01-19T17:35:21;2.80;;;1.58;;
46561;SDS011;32289;42.688;23.330;2023-01-19T17:39:07;7.82;;;1.35;;
46561;SDS011;32289;42.688;23.330;2023-01-19T17:42:50;4.40;;;1.00;;
46561;SDS011;32289;42.688;23.330;2023-01-19T17:46:34;6.15;;;1.25;;
46561;SDS011;32289;42.688;23.330;2023-01-19T17:50:16;1.73;;;0.80;;
46561;SDS011;32289;42.688;23.330;2023-01-19T17:53:57;8.88;;;0.75;;
46561;SDS011;32289;42.688;23.330;2023-01-19T17:57:38;1.75;;;0.70;;
46561;SDS011;32289;42.688;23.330;2023-01-19T18:01:22;3.20;;;0.95;;
46561;SDS011;32289;42.688;23.330;2023-01-19T18:05:05;9.75;;;1.60;;
46561;SDS011;32289;42.688;23.330;2023-01-19T18:08:51;3.80;;;1.52;;
46561;SDS011;32289;42.688;23.330;2023-01-19T18:12:33;5.30;;;2.00;;
46561;SDS011;32289;42.688;23.330;2023-01-19T18:16:15;3.42;;;1.80;;
46561;SDS011;32289;42.688;23.330;2023-01-19T18:19:58;7.68;;;2.72;;
46561;SDS011;32289;42.688;23.330;2023-01-19T18:23:39;6.93;;;2.50;;
46561;SDS011;32289;42.688;23.330;2023-01-19T18:27:22;5.72;;;1.98;;
46561;SDS011;32289;42.688;23.330;2023-01-19T18:31:06;7.65;;;2.00;;
46561;SDS011;32289;42.688;23.330;2023-01-19T18:34:48;3.00;;;1.50;;
46561;SDS011;32289;42.688;23.330;2023-01-19T18:38:31;4.63;;;1.95;;
46561;SDS011;32289;42.688;23.330;2023-01-19T18:42:12;4.75;;;1.95;;
46561;SDS011;32289;42.688;23.330;2023-01-19T18:45:52;16.55;;;3.70;;
46561;SDS011;32289;42.688;23.330;2023-01-19T18:49:33;4.05;;;1.90;;
46561;SDS011;32289;42.688;23.330;2023-01-19T18:53:14;7.78;;;2.17;;
46561;SDS011;32289;42.688;23.330;2023-01-19T18:56:55;7.70;;;1.98;;
46561;SDS011;32289;42.688;23.330;2023-01-19T19:00:35;8.95;;;1.20;;
46561;SDS011;32289;42.688;23.330;2023-01-19T19:04:16;3.60;;;1.38;;
46561;SDS011;32289;42.688;23.330;2023-01-19T19:07:59;3.97;;;0.90;;
46561;SDS011;32289;42.688;23.330;2023-01-19T19:11:39;4.55;;;1.98;;
46561;SDS011;32289;42.688;23.330;2023-01-19T19:15:20;4.50;;;2.10;;
46561;SDS011;32289;42.688;23.330;2023-01-19T19:19:01;2.30;;;1.10;;
46561;SDS011;32289;42.688;23.330;2023-01-19T19:22:42;4.47;;;1.80;;
46561;SDS011;32289;42.688;23.330;2023-01-19T19:26:23;4.68;;;1.30;;
46561;SDS011;32289;42.688;23.330;2023-01-19T19:30:07;5.35;;;1.70;;
46561;SDS011;32289;42.688;23.330;2023-01-19T19:33:48;4.28;;;0.75;;
46561;SDS011;32289;42.688;23.330;2023-01-19T19:37:30;1.13;;;0.73;;
46561;SDS011;32289;42.688;23.330;2023-01-19T19:41:11;3.83;;;1.40;;
46561;SDS011;32289;42.688;23.330;2023-01-19T19:44:54;3.88;;;1.35;;
46561;SDS011;32289;42.688;23.330;2023-01-19T19:48:35;2.00;;;0.82;;
46561;SDS011;32289;42.688;23.330;2023-01-19T19:52:17;2.03;;;0.50;;
46561;SDS011;32289;42.688;23.330;2023-01-19T19:55:59;2.33;;;0.90;;
46561;SDS011;32289;42.688;23.330;2023-01-19T19:59:41;1.25;;;0.47;;
46561;SDS011;32289;42.688;23.330;2023-01-19T20:03:24;0.20;;;0.20;;
46561;SDS011;32289;42.688;23.330;2023-01-19T20:07:05;4.10;;;1.00;;
46561;SDS011;32289;42.688;23.330;2023-01-19T20:10:46;1.30;;;0.43;;
46561;SDS011;32289;42.688;23.330;2023-01-19T20:14:27;1.40;;;0.50;;
46561;SDS011;32289;42.688;23.330;2023-01-19T20:18:07;0.77;;;0.45;;
46561;SDS011;32289;42.688;23.330;2023-01-19T20:21:48;2.08;;;0.70;;
46561;SDS011;32289;42.688;23.330;2023-01-19T20:25:29;2.33;;;1.08;;
46561;SDS011;32289;42.688;23.330;2023-01-19T20:29:09;1.50;;;0.80;;
46561;SDS011;32289;42.688;23.330;2023-01-19T20:32:50;2.13;;;0.73;;
46561;SDS011;32289;42.688;23.330;2023-01-19T20:36:31;2.13;;;0.98;;
46561;SDS011;32289;42.688;23.330;2023-01-19T20:40:12;1.15;;;0.50;;
46561;SDS011;32289;42.688;23.330;2023-01-19T20:43:52;5.05;;;1.02;;
46561;SDS011;32289;42.688;23.330;2023-01-19T20:47:33;2.25;;;0.90;;
46561;SDS011;32289;42.688;23.330;2023-01-19T20:51:14;4.32;;;0.60;;
46561;SDS011;32289;42.688;23.330;2023-01-19T20:54:54;5.97;;;1.10;;
46561;SDS011;32289;42.688;23.330;2023-01-19T20:58:36;1.55;;;0.70;;
46561;SDS011;32289;42.688;23.330;2023-01-19T21:02:16;1.70;;;0.40;;
46561;SDS011;32289;42.688;23.330;2023-01-19T21:05:57;2.47;;;1.00;;
46561;SDS011;32289;42.688;23.330;2023-01-19T21:09:38;2.28;;;0.70;;
46561;SDS011;32289;42.688;23.330;2023-01-19T21:13:19;3.05;;;0.93;;
46561;SDS011;32289;42.688;23.330;2023-01-19T21:16:59;3.28;;;0.80;;
46561;SDS011;32289;42.688;23.330;2023-01-19T21:20:40;2.45;;;0.70;;
46561;SDS011;32289;42.688;23.330;2023-01-19T21:24:21;3.35;;;0.80;;
46561;SDS011;32289;42.688;23.330;2023-01-19T21:28:02;2.38;;;1.23;;
46561;SDS011;32289;42.688;23.330;2023-01-19T21:31:42;3.33;;;1.60;;
46561;SDS011;32289;42.688;23.330;2023-01-19T21:35:23;2.05;;;1.15;;
46561;SDS011;32289;42.688;23.330;2023-01-19T21:39:04;3.03;;;1.35;;
46561;SDS011;32289;42.688;23.330;2023-01-19T21:46:31;3.53;;;1.10;;
46561;SDS011;32289;42.688;23.330;2023-01-19T21:50:13;1.35;;;0.88;;
46561;SDS011;32289;42.688;23.330;2023-01-19T21:53:54;4.65;;;0.80;;
46561;SDS011;32289;42.688;23.330;2023-01-19T21:57:39;2.50;;;1.15;;
46561;SDS011;32289;42.688;23.330;2023-01-19T22:01:19;4.25;;;1.67;;
46561;SDS011;32289;42.688;23.330;2023-01-19T22:05:03;7.55;;;2.15;;
46561;SDS011;32289;42.688;23.330;2023-01-19T22:08:45;10.00;;;2.72;;
46561;SDS011;32289;42.688;23.330;2023-01-19T22:16:15;5.55;;;1.92;;
46561;SDS011;32289;42.688;23.330;2023-01-19T22:19:57;3.47;;;1.63;;
46561;SDS011;32289;42.688;23.330;2023-01-19T22:23:38;6.85;;;2.45;;
46561;SDS011;32289;42.688;23.330;2023-01-19T22:27:20;4.65;;;2.05;;
46561;SDS011;32289;42.688;23.330;2023-01-19T22:31:02;6.22;;;1.88;;
46561;SDS011;32289;42.688;23.330;2023-01-19T22:34:48;4.05;;;1.63;;
46561;SDS011;32289;42.688;23.330;2023-01-19T22:38:29;4.50;;;1.95;;
46561;SDS011;32289;42.688;23.330;2023-01-19T22:42:10;2.35;;;1.15;;
46561;SDS011;32289;42.688;23.330;2023-01-19T22:45:50;4.82;;;2.13;;
46561;SDS011;32289;42.688;23.330;2023-01-19T22:49:31;5.00;;;2.63;;
46561;SDS011;32289;42.688;23.330;2023-01-19T22:53:12;2.65;;;1.40;;
46561;SDS011;32289;42.688;23.330;2023-01-19T22:56:54;2.35;;;1.42;;
46561;SDS011;32289;42.688;23.330;2023-01-19T23:00:34;2.28;;;1.15;;